createdAt,value
2023-01-30T00:00:31.290Z,1.85
2023-01-30T00:03:01.618Z,1.70
2023-01-30T00:05:30.270Z,1.77
2023-01-30T00:07:58.863Z,1.86
2023-01-30T00:10:27.692Z,1.88
2023-01-30T00:12:56.266Z,1.93
2023-01-30T00:15:24.944Z,2.00
2023-01-30T00:17:53.539Z,1.92
2023-01-30T00:20:23.586Z,1.95
2023-01-30T00:23:00.574Z,1.90
2023-01-30T00:25:31.547Z,1.92
2023-01-30T00:28:02.753Z,1.86
2023-01-30T00:30:32.127Z,1.88
2023-01-30T00:33:01.372Z,1.81
2023-01-30T00:35:31.679Z,1.90
2023-01-30T00:38:01.184Z,1.67
2023-01-30T00:40:31.253Z,1.71
2023-01-30T00:43:17.035Z,1.73
2023-01-30T00:46:04.405Z,1.83
2023-01-30T00:48:33.584Z,1.67
2023-01-30T00:51:03.624Z,1.72
2023-01-30T00:53:32.393Z,1.64
2023-01-30T00:56:01.087Z,1.67
2023-01-30T00:58:29.748Z,1.58
2023-01-30T01:00:58.374Z,1.70
2023-01-30T01:03:27.156Z,1.72
2023-01-30T01:05:57.357Z,1.67
2023-01-30T01:08:29.469Z,1.53
2023-01-30T01:10:58.479Z,1.54
2023-01-30T01:13:31.573Z,1.52
2023-01-30T01:16:00.352Z,1.58
2023-01-30T01:18:36.157Z,1.48
2023-01-30T01:21:14.228Z,1.54
2023-01-30T01:23:44.439Z,1.51
2023-01-30T01:26:13.070Z,1.42
2023-01-30T01:28:42.488Z,1.52
2023-01-30T01:31:15.309Z,1.56
2023-01-30T01:33:52.869Z,1.41
2023-01-30T01:36:49.744Z,1.55
2023-01-30T01:39:12.808Z,1.46
2023-01-30T01:41:40.401Z,1.56
2023-01-30T01:44:10.891Z,1.58
2023-01-30T01:46:47.079Z,1.52
2023-01-30T01:49:20.950Z,1.48
2023-01-30T01:51:58.491Z,1.39
2023-01-30T01:54:37.064Z,1.47
2023-01-30T01:57:18.871Z,1.50
2023-01-30T01:59:54.027Z,1.55
2023-01-30T02:02:23.291Z,1.57
2023-01-30T02:05:06.914Z,1.58
2023-01-30T02:07:40.859Z,1.57
2023-01-30T02:10:20.574Z,1.58
2023-01-30T02:12:51.613Z,1.53
2023-01-30T02:15:22.787Z,1.55
2023-01-30T02:17:51.552Z,1.48
2023-01-30T02:20:37.692Z,1.62
2023-01-30T02:23:56.882Z,1.52
2023-01-30T02:27:02.193Z,1.46
2023-01-30T02:30:10.072Z,1.43
2023-01-30T02:32:49.085Z,1.48
2023-01-30T02:35:28.962Z,1.54
2023-01-30T02:38:15.975Z,1.45
2023-01-30T02:40:59.592Z,1.61
2023-01-30T02:43:40.906Z,1.48
2023-01-30T02:46:16.875Z,1.48
2023-01-30T02:48:54.036Z,1.44
2023-01-30T02:51:28.910Z,1.43
2023-01-30T02:53:57.870Z,1.48
2023-01-30T02:56:27.745Z,1.31
2023-01-30T02:59:06.128Z,1.39
2023-01-30T03:02:44.716Z,1.34
2023-01-30T03:05:44.404Z,1.40
2023-01-30T03:08:26.927Z,1.35
2023-01-30T03:11:02.615Z,1.47
2023-01-30T03:13:48.077Z,1.39
2023-01-30T03:16:26.813Z,1.30
2023-01-30T03:18:56.420Z,1.34
2023-01-30T03:21:26.513Z,1.38
2023-01-30T03:23:55.172Z,1.38
2023-01-30T03:26:29.713Z,1.43
2023-01-30T03:28:59.301Z,1.32
2023-01-30T03:31:28.013Z,1.38
2023-01-30T03:33:56.861Z,1.38
2023-01-30T03:36:27.905Z,1.42
2023-01-30T03:38:58.344Z,1.53
2023-01-30T03:41:27.106Z,1.48
2023-01-30T03:43:56.097Z,1.50
2023-01-30T03:46:25.166Z,1.50
2023-01-30T03:48:53.920Z,1.52
2023-01-30T03:51:24.125Z,1.39
2023-01-30T03:53:55.077Z,1.46
2023-01-30T03:56:24.511Z,1.45
2023-01-30T03:58:53.223Z,1.47
2023-01-30T04:01:30.131Z,1.41
2023-01-30T04:03:58.816Z,1.46
2023-01-30T04:06:28.252Z,1.55
2023-01-30T04:08:59.376Z,1.47
2023-01-30T04:11:44.435Z,1.52
2023-01-30T04:14:13.701Z,1.64
2023-01-30T04:17:05.353Z,1.62
2023-01-30T04:19:46.207Z,1.61
2023-01-30T04:22:15.660Z,1.58
2023-01-30T04:24:45.867Z,1.58
2023-01-30T04:27:14.573Z,1.66
2023-01-30T04:29:59.669Z,1.62
2023-01-30T04:32:28.906Z,1.62
2023-01-30T04:34:58.660Z,1.61
2023-01-30T04:37:27.932Z,1.64
2023-01-30T04:39:58.078Z,1.69
2023-01-30T04:42:28.955Z,1.78
2023-01-30T04:45:35.856Z,1.71
2023-01-30T04:48:05.553Z,1.64
2023-01-30T04:50:34.636Z,1.65
2023-01-30T04:53:03.410Z,1.68
2023-01-30T04:55:33.826Z,1.67
2023-01-30T04:58:02.842Z,1.71
2023-01-30T05:00:31.798Z,1.74
2023-01-30T05:03:02.541Z,1.74
2023-01-30T05:05:31.318Z,1.75
2023-01-30T05:08:00.647Z,1.79
2023-01-30T05:10:29.561Z,1.76
2023-01-30T05:13:07.086Z,1.75
2023-01-30T05:15:37.952Z,1.80
2023-01-30T05:18:06.883Z,1.85
2023-01-30T05:20:35.523Z,1.83
2023-01-30T05:23:04.144Z,1.90
2023-01-30T05:25:32.846Z,1.88
2023-01-30T05:28:01.614Z,1.83
2023-01-30T05:30:31.700Z,1.95
2023-01-30T05:33:00.445Z,1.86
2023-01-30T05:35:29.444Z,1.90
2023-01-30T05:37:59.445Z,1.94
2023-01-30T05:40:28.284Z,1.89
2023-01-30T05:42:56.927Z,1.86
2023-01-30T05:45:25.606Z,1.86
2023-01-30T05:47:58.586Z,1.86
2023-01-30T05:50:30.074Z,1.90
2023-01-30T05:53:00.910Z,1.99
2023-01-30T05:55:31.186Z,1.87
2023-01-30T05:58:00.486Z,1.95
2023-01-30T06:00:29.396Z,1.89
2023-01-30T06:03:02.442Z,1.97
2023-01-30T06:05:32.950Z,1.97
2023-01-30T06:08:03.040Z,1.89
2023-01-30T06:10:34.730Z,1.93
2023-01-30T06:13:06.253Z,2.02
2023-01-30T06:15:45.725Z,1.90
2023-01-30T06:18:25.141Z,1.94
2023-01-30T06:21:05.021Z,1.95
2023-01-30T06:23:36.523Z,1.95
2023-01-30T06:26:09.570Z,2.01
2023-01-30T06:28:38.725Z,2.00
2023-01-30T06:31:09.785Z,1.88
2023-01-30T06:33:41.793Z,1.99
2023-01-30T06:36:11.673Z,2.01
2023-01-30T06:38:43.251Z,1.96
2023-01-30T06:41:11.886Z,1.99
2023-01-30T06:43:40.542Z,1.96
2023-01-30T06:46:09.918Z,2.02
2023-01-30T06:48:40.583Z,2.11
2023-01-30T06:51:09.346Z,2.11
2023-01-30T06:53:40.116Z,2.21
2023-01-30T06:56:09.368Z,2.24
2023-01-30T06:58:40.122Z,2.15
2023-01-30T07:01:09.292Z,2.21
2023-01-30T07:03:40.161Z,2.21
2023-01-30T07:06:10.707Z,2.29
2023-01-30T07:08:41.357Z,2.22
2023-01-30T07:11:11.421Z,2.22
2023-01-30T07:13:40.435Z,2.21
2023-01-30T07:16:10.518Z,2.37
2023-01-30T07:18:40.487Z,2.22
2023-01-30T07:21:12.431Z,2.31
2023-01-30T07:23:41.375Z,2.38
2023-01-30T07:26:11.080Z,2.30
2023-01-30T07:28:40.679Z,2.33
2023-01-30T07:31:13.364Z,2.36
2023-01-30T07:33:44.229Z,2.31
2023-01-30T07:36:16.733Z,2.28
2023-01-30T07:38:45.680Z,2.45
2023-01-30T07:41:14.858Z,2.48
2023-01-30T07:43:43.423Z,2.46
2023-01-30T07:46:12.083Z,2.56
2023-01-30T07:48:47.740Z,2.56
2023-01-30T07:51:16.923Z,2.60
2023-01-30T07:53:48.052Z,2.56
2023-01-30T07:56:19.401Z,2.58
2023-01-30T07:58:48.045Z,2.62
2023-01-30T08:01:17.386Z,2.56
2023-01-30T08:03:49.391Z,2.53
2023-01-30T08:06:23.453Z,2.54
2023-01-30T08:08:58.376Z,2.69
2023-01-30T08:11:29.731Z,2.64
2023-01-30T08:14:00.015Z,2.74
2023-01-30T08:16:28.703Z,2.77
2023-01-30T08:18:58.778Z,2.76
2023-01-30T08:21:29.151Z,2.71
2023-01-30T08:24:01.229Z,2.80
2023-01-30T08:26:38.539Z,2.85
2023-01-30T08:29:10.920Z,2.91
2023-01-30T08:31:41.080Z,2.88
2023-01-30T08:34:14.273Z,2.80
2023-01-30T08:36:49.144Z,2.79
2023-01-30T08:39:20.926Z,2.85
2023-01-30T08:42:07.971Z,2.97
2023-01-30T08:44:43.182Z,2.81
2023-01-30T08:47:24.052Z,2.93
2023-01-30T08:49:54.331Z,2.91
2023-01-30T08:52:23.026Z,2.91
2023-01-30T08:54:51.632Z,3.02
2023-01-30T08:57:20.491Z,2.93
2023-01-30T08:59:51.318Z,3.01
2023-01-30T09:02:20.686Z,2.95
2023-01-30T09:04:49.421Z,2.99
2023-01-30T09:07:20.252Z,2.94
2023-01-30T09:09:49.408Z,2.95
2023-01-30T09:12:18.087Z,2.88
2023-01-30T09:14:48.653Z,3.09
2023-01-30T09:17:17.959Z,2.88
2023-01-30T09:19:46.641Z,2.94
2023-01-30T09:22:18.229Z,2.97
2023-01-30T09:24:48.241Z,2.85
2023-01-30T09:27:18.241Z,2.91
2023-01-30T09:29:46.975Z,2.78
2023-01-30T09:32:19.119Z,2.75
2023-01-30T09:34:51.011Z,2.76
2023-01-30T09:37:32.294Z,2.77
2023-01-30T09:40:05.167Z,2.79
2023-01-30T09:43:08.394Z,2.75
2023-01-30T09:45:51.231Z,2.79
2023-01-30T09:48:30.702Z,2.73
2023-01-30T09:51:27.690Z,2.63
2023-01-30T09:54:15.434Z,2.63
2023-01-30T09:56:45.587Z,2.60
2023-01-30T09:59:27.943Z,2.58
2023-01-30T10:02:23.502Z,2.72
2023-01-30T10:05:01.383Z,2.72
2023-01-30T10:07:56.634Z,2.60
2023-01-30T10:11:35.689Z,2.56
2023-01-30T10:14:50.646Z,2.58
2023-01-30T10:17:38.132Z,2.64
2023-01-30T10:20:32.729Z,2.61
2023-01-30T10:23:25.690Z,2.60
2023-01-30T10:25:59.010Z,2.58
2023-01-30T10:28:35.857Z,2.50
2023-01-30T10:31:14.945Z,2.53
2023-01-30T10:33:53.429Z,2.58
2023-01-30T10:36:30.603Z,2.58
2023-01-30T10:39:05.928Z,2.50
2023-01-30T10:41:42.651Z,2.56
2023-01-30T10:44:14.122Z,2.40
2023-01-30T10:47:17.694Z,2.41
2023-01-30T10:49:54.152Z,2.51
2023-01-30T10:53:08.441Z,2.46
2023-01-30T10:55:43.369Z,2.39
2023-01-30T10:58:23.663Z,2.48
2023-01-30T11:01:30.400Z,2.42
2023-01-30T11:04:05.578Z,2.41
2023-01-30T11:06:36.389Z,2.42
2023-01-30T11:09:05.210Z,2.41
2023-01-30T11:11:50.298Z,2.46
2023-01-30T11:14:22.575Z,2.43
2023-01-30T11:16:55.804Z,2.47
2023-01-30T11:19:34.831Z,2.37
2023-01-30T11:22:07.074Z,2.52
2023-01-30T11:24:44.897Z,2.51
2023-01-30T11:27:22.374Z,2.54
2023-01-30T11:29:53.299Z,2.53
2023-01-30T11:32:28.756Z,2.51
2023-01-30T11:35:22.840Z,2.39
2023-01-30T11:37:54.691Z,2.52
2023-01-30T11:40:31.205Z,2.56
2023-01-30T11:43:09.828Z,2.56
2023-01-30T11:45:45.863Z,2.59
2023-01-30T11:49:01.149Z,2.58
2023-01-30T11:51:14.076Z,2.49
2023-01-30T11:53:47.193Z,2.45
2023-01-30T11:56:26.362Z,2.41
2023-01-30T11:59:04.013Z,2.62
2023-01-30T12:01:41.170Z,2.57
2023-01-30T12:04:15.580Z,2.57
2023-01-30T12:06:45.588Z,2.50
2023-01-30T12:12:53.011Z,2.57
2023-01-30T12:15:27.490Z,2.45
2023-01-30T12:18:21.067Z,2.50
2023-01-30T12:21:00.877Z,2.53
2023-01-30T12:23:41.338Z,2.46
2023-01-30T12:26:17.123Z,2.50
2023-01-30T12:28:55.155Z,2.56
2023-01-30T12:31:33.572Z,2.59
2023-01-30T12:34:02.456Z,2.60
2023-01-30T12:36:43.856Z,2.44
2023-01-30T12:39:37.048Z,2.44
2023-01-30T12:42:43.535Z,2.50
2023-01-30T12:45:24.779Z,2.59
2023-01-30T12:48:43.874Z,2.54
2023-01-30T12:51:53.613Z,2.65
2023-01-30T12:54:44.675Z,2.55
2023-01-30T12:57:27.991Z,2.54
2023-01-30T13:00:19.541Z,2.56
2023-01-30T13:03:11.396Z,2.63
2023-01-30T13:05:49.207Z,2.60
2023-01-30T13:08:48.236Z,2.59
2023-01-30T13:11:43.304Z,2.56
2023-01-30T13:14:24.308Z,2.56
2023-01-30T13:17:15.688Z,2.53
2023-01-30T13:19:53.958Z,2.56
2023-01-30T13:22:33.869Z,2.62
2023-01-30T13:25:16.037Z,2.60
2023-01-30T13:27:55.121Z,2.61
2023-01-30T13:30:27.894Z,2.63
2023-01-30T13:33:01.563Z,2.62
2023-01-30T13:35:37.238Z,2.63
2023-01-30T13:38:20.077Z,2.65
2023-01-30T13:40:52.624Z,2.60
2023-01-30T13:43:30.430Z,2.62
2023-01-30T13:46:04.896Z,2.58
2023-01-30T13:48:51.006Z,2.72
2023-01-30T13:51:43.092Z,2.67
2023-01-30T13:54:29.678Z,2.69
2023-01-30T13:57:12.192Z,2.69
2023-01-30T14:00:25.023Z,2.62
2023-01-30T14:03:32.902Z,2.60
2023-01-30T14:06:36.462Z,2.69
2023-01-30T14:09:21.175Z,2.72
2023-01-30T14:11:58.772Z,2.65
2023-01-30T14:14:32.797Z,2.65
2023-01-30T14:17:15.460Z,2.59
2023-01-30T14:19:54.481Z,2.59
2023-01-30T14:22:27.983Z,2.77
2023-01-30T14:25:41.308Z,2.78
2023-01-30T14:28:54.709Z,2.74
2023-01-30T14:31:54.245Z,2.76
2023-01-30T14:35:22.791Z,2.68
2023-01-30T14:38:08.312Z,2.83
2023-01-30T14:41:25.828Z,2.81
2023-01-30T14:43:54.759Z,2.85
2023-01-30T14:46:55.776Z,2.78
2023-01-30T14:49:34.348Z,2.73
2023-01-30T14:52:05.720Z,2.77
2023-01-30T14:54:45.868Z,2.71
2023-01-30T14:57:23.055Z,2.85
2023-01-30T15:00:14.944Z,2.81
2023-01-30T15:02:54.260Z,2.85
2023-01-30T15:05:33.028Z,2.81
2023-01-30T15:08:11.321Z,2.81
2023-01-30T15:11:09.730Z,2.74
2023-01-30T15:13:49.958Z,2.79
2023-01-30T15:16:58.043Z,2.77
2023-01-30T15:19:56.519Z,2.79
2023-01-30T15:22:35.935Z,2.61
2023-01-30T15:25:38.218Z,2.68
2023-01-30T15:28:22.135Z,2.73
2023-01-30T15:31:08.189Z,2.68
2023-01-30T15:33:46.534Z,2.81
2023-01-30T15:36:27.120Z,2.74
2023-01-30T15:39:02.414Z,2.73
2023-01-30T15:41:40.458Z,2.72
2023-01-30T15:44:51.662Z,2.69
2023-01-30T15:47:55.057Z,2.74
2023-01-30T15:50:23.899Z,2.67
2023-01-30T15:52:56.574Z,2.56
2023-01-30T15:55:29.683Z,2.53
2023-01-30T15:58:04.852Z,2.66
2023-01-30T16:00:38.309Z,2.64
2023-01-30T16:03:14.571Z,2.69
2023-01-30T16:05:49.592Z,2.60
2023-01-30T16:08:25.369Z,2.71
2023-01-30T16:10:54.664Z,2.62
2023-01-30T16:13:26.062Z,2.67
2023-01-30T16:16:02.093Z,2.69
2023-01-30T16:18:37.367Z,2.75
2023-01-30T16:21:10.601Z,2.72
2023-01-30T16:23:44.333Z,2.62
2023-01-30T16:26:21.828Z,2.67
2023-01-30T16:28:59.748Z,2.69
2023-01-30T16:31:34.184Z,2.65
2023-01-30T16:34:03.031Z,2.72
2023-01-30T16:36:39.382Z,2.76
2023-01-30T16:39:41.277Z,2.62
2023-01-30T16:42:25.328Z,2.77
2023-01-30T16:45:16.086Z,2.76
2023-01-30T16:47:48.283Z,2.74
2023-01-30T16:50:23.542Z,2.85
2023-01-30T16:52:54.713Z,2.77
2023-01-30T16:55:27.073Z,2.74
2023-01-30T16:58:02.036Z,2.77
2023-01-30T17:00:38.187Z,2.76
2023-01-30T17:03:22.264Z,2.72
2023-01-30T17:05:51.723Z,2.78
2023-01-30T17:08:49.800Z,2.74
2023-01-30T17:11:34.365Z,2.88
2023-01-30T17:14:30.674Z,2.85
2023-01-30T17:17:06.540Z,2.85
2023-01-30T17:19:35.781Z,2.84
2023-01-30T17:22:07.447Z,2.83
2023-01-30T17:24:37.324Z,2.88
2023-01-30T17:27:06.106Z,2.79
2023-01-30T17:29:42.864Z,2.81
2023-01-30T17:32:16.511Z,2.90
2023-01-30T17:34:45.399Z,2.76
2023-01-30T17:37:18.458Z,2.85
2023-01-30T17:39:47.881Z,2.82
2023-01-30T17:42:21.139Z,2.83
2023-01-30T17:44:50.699Z,2.86
2023-01-30T17:47:21.158Z,2.83
2023-01-30T17:49:49.777Z,2.94
2023-01-30T17:52:19.108Z,2.85
2023-01-30T17:54:47.753Z,2.83
2023-01-30T17:57:17.022Z,2.91
2023-01-30T17:59:46.944Z,2.93
2023-01-30T18:02:15.644Z,2.81
2023-01-30T18:04:46.785Z,2.89
2023-01-30T18:07:16.837Z,2.90
2023-01-30T18:09:45.580Z,2.90
2023-01-30T18:12:14.272Z,2.83
2023-01-30T18:14:44.244Z,2.86
2023-01-30T18:17:13.313Z,2.87
2023-01-30T18:19:45.505Z,2.87
2023-01-30T18:22:16.096Z,2.83
2023-01-30T18:24:45.476Z,2.81
2023-01-30T18:27:17.616Z,2.85
2023-01-30T18:29:46.913Z,2.89
2023-01-30T18:32:15.508Z,2.88
2023-01-30T18:34:46.477Z,2.90
2023-01-30T18:37:17.989Z,2.79
2023-01-30T18:39:47.018Z,2.82
2023-01-30T18:42:15.696Z,2.83
2023-01-30T18:44:44.459Z,2.82
2023-01-30T18:47:13.177Z,2.79
2023-01-30T18:49:42.441Z,2.79
2023-01-30T18:52:11.078Z,2.87
2023-01-30T18:54:41.165Z,2.91
2023-01-30T18:57:09.895Z,2.95
2023-01-30T18:59:40.023Z,2.84
2023-01-30T19:02:08.791Z,2.87
2023-01-30T19:04:37.656Z,2.83
2023-01-30T19:07:06.313Z,2.83
2023-01-30T19:09:34.894Z,2.86
2023-01-30T19:12:35.185Z,2.81
2023-01-30T19:15:04.218Z,2.91
2023-01-30T19:17:33.145Z,2.78
2023-01-30T19:20:02.617Z,2.83
2023-01-30T19:22:32.719Z,2.84
2023-01-30T19:25:01.378Z,2.86
2023-01-30T19:27:33.000Z,2.93
2023-01-30T19:30:01.912Z,2.85
2023-01-30T19:32:35.656Z,2.85
2023-01-30T19:35:09.558Z,2.82
2023-01-30T19:37:39.640Z,2.89
2023-01-30T19:40:11.900Z,2.83
2023-01-30T19:42:45.734Z,2.81
2023-01-30T19:45:15.513Z,2.76
2023-01-30T19:47:44.158Z,2.81
2023-01-30T19:50:13.483Z,2.81
2023-01-30T19:52:42.167Z,2.91
2023-01-30T19:55:18.631Z,2.83
2023-01-30T19:57:48.707Z,2.79
2023-01-30T20:00:18.470Z,2.88
2023-01-30T20:02:47.246Z,2.76
2023-01-30T20:05:16.108Z,2.82
2023-01-30T20:07:46.490Z,2.78
2023-01-30T20:10:15.098Z,2.79
2023-01-30T20:12:46.163Z,2.83
2023-01-30T20:15:16.526Z,2.88
2023-01-30T20:17:45.479Z,2.81
2023-01-30T20:20:14.492Z,2.81
2023-01-30T20:22:43.067Z,2.82
2023-01-30T20:25:12.125Z,2.77
2023-01-30T20:27:41.382Z,2.74
2023-01-30T20:30:11.875Z,2.66
2023-01-30T20:32:41.919Z,2.77
2023-01-30T20:35:11.590Z,2.61
2023-01-30T20:37:40.202Z,2.69
2023-01-30T20:40:11.264Z,2.78
2023-01-30T20:42:41.514Z,2.59
2023-01-30T20:45:11.508Z,2.61
2023-01-30T20:47:42.131Z,2.69
2023-01-30T20:50:13.820Z,2.74
2023-01-30T20:52:43.632Z,2.62
2023-01-30T20:55:12.523Z,2.69
2023-01-30T20:57:44.176Z,2.63
2023-01-30T21:00:14.374Z,2.62
2023-01-30T21:02:48.510Z,2.58
2023-01-30T21:05:19.413Z,2.65
2023-01-30T21:07:48.329Z,2.62
2023-01-30T21:10:17.945Z,2.72
2023-01-30T21:12:47.618Z,2.62
2023-01-30T21:15:18.421Z,2.60
2023-01-30T21:17:48.603Z,2.59
2023-01-30T21:20:18.132Z,2.58
2023-01-30T21:22:47.183Z,2.63
2023-01-30T21:25:16.064Z,2.61
2023-01-30T21:27:44.933Z,2.61
2023-01-30T21:30:14.236Z,2.59
2023-01-30T21:32:42.808Z,2.62
2023-01-30T21:35:12.940Z,2.55
2023-01-30T21:37:59.121Z,2.46
2023-01-30T21:40:59.652Z,2.65
2023-01-30T21:43:28.266Z,2.73
2023-01-30T21:45:59.613Z,2.72
2023-01-30T21:48:28.326Z,2.58
2023-01-30T21:50:58.836Z,2.63
2023-01-30T21:53:28.439Z,2.62
2023-01-30T21:55:57.054Z,2.48
2023-01-30T21:58:25.942Z,2.58
2023-01-30T22:00:55.240Z,2.48
2023-01-30T22:03:27.978Z,2.49
2023-01-30T22:05:58.005Z,2.54
2023-01-30T22:08:26.591Z,2.43
2023-01-30T22:11:09.168Z,2.49
2023-01-30T22:13:40.019Z,2.37
2023-01-30T22:16:12.512Z,2.41
2023-01-30T22:18:45.239Z,2.33
2023-01-30T22:21:18.994Z,2.40
2023-01-30T22:23:51.259Z,2.39
2023-01-30T22:26:22.344Z,2.35
2023-01-30T22:28:56.201Z,2.37
2023-01-30T22:31:27.306Z,2.28
2023-01-30T22:33:57.760Z,2.22
2023-01-30T22:36:30.776Z,2.30
2023-01-30T22:38:59.531Z,2.37
2023-01-30T22:41:31.932Z,2.45
2023-01-30T22:44:01.644Z,2.42
2023-01-30T22:46:33.059Z,2.44
2023-01-30T22:49:03.166Z,2.42
2023-01-30T22:51:36.241Z,2.48
2023-01-30T22:54:07.801Z,2.49
2023-01-30T22:56:39.573Z,2.46
2023-01-30T22:59:09.463Z,2.43
2023-01-30T23:01:40.661Z,2.57
2023-01-30T23:04:14.827Z,2.51
2023-01-30T23:06:45.563Z,2.47
2023-01-30T23:09:20.823Z,2.36
2023-01-30T23:12:05.761Z,2.49
2023-01-30T23:14:35.660Z,2.45
2023-01-30T23:17:29.890Z,2.48
2023-01-30T23:19:57.931Z,2.45
2023-01-30T23:22:27.941Z,2.48
2023-01-30T23:24:56.515Z,2.45
2023-01-30T23:27:25.122Z,2.51
2023-01-30T23:29:53.750Z,2.48
2023-01-30T23:32:23.769Z,2.41
2023-01-30T23:34:52.760Z,2.51
2023-01-30T23:37:41.966Z,2.56
2023-01-30T23:40:13.948Z,2.53
2023-01-30T23:42:42.567Z,2.48
2023-01-30T23:45:12.365Z,2.44
2023-01-30T23:47:40.952Z,2.52
2023-01-30T23:50:11.381Z,2.57
2023-01-30T23:52:40.016Z,2.64
2023-01-30T23:55:09.825Z,2.56
2023-01-30T23:57:39.887Z,2.58
